createdAt,value
2017-10-26T00:00:44.501Z,14.89
2017-10-26T00:01:44.168Z,14.91
2017-10-26T00:02:44.780Z,14.92
2017-10-26T00:03:44.761Z,15.09
2017-10-26T00:04:44.750Z,15.09
2017-10-26T00:05:44.736Z,15.04
2017-10-26T00:06:44.062Z,15.1
2017-10-26T00:07:44.442Z,15.04
2017-10-26T00:08:44.682Z,15
2017-10-26T00:09:44.650Z,15.04
2017-10-26T00:10:44.322Z,14.94
2017-10-26T00:11:44.630Z,15.07
2017-10-26T00:12:44.300Z,15.12
2017-10-26T00:13:44.260Z,15.1
2017-10-26T00:14:44.561Z,15.09
2017-10-26T00:15:44.631Z,15
2017-10-26T00:16:44.522Z,15
2017-10-26T00:17:44.251Z,14.85
2017-10-26T00:18:44.487Z,14.92
2017-10-26T00:19:44.482Z,14.84
2017-10-26T00:20:44.465Z,14.89
2017-10-26T00:21:44.454Z,14.85
2017-10-26T00:22:44.446Z,14.94
2017-10-26T00:23:44.398Z,14.95
2017-10-26T00:24:44.372Z,14.92
2017-10-26T00:25:44.293Z,14.85
2017-10-26T00:26:44.363Z,14.95
2017-10-26T00:27:44.003Z,14.94
2017-10-26T00:28:44.311Z,14.98
2017-10-26T00:29:44.284Z,14.96
2017-10-26T00:30:44.295Z,14.96
2017-10-26T00:31:43.619Z,14.91
2017-10-26T00:32:43.918Z,14.85
2017-10-26T00:33:44.055Z,14.85
2017-10-26T00:34:43.912Z,14.85
2017-10-26T00:35:43.862Z,14.77
2017-10-26T00:36:43.860Z,14.66
2017-10-26T00:37:44.162Z,14.75
2017-10-26T00:38:43.811Z,14.82
2017-10-26T00:39:43.779Z,14.82
2017-10-26T00:40:43.766Z,14.75
2017-10-26T00:41:43.752Z,14.77
2017-10-26T00:42:43.724Z,14.8
2017-10-26T00:43:43.741Z,14.72
2017-10-26T00:44:43.709Z,14.88
2017-10-26T00:45:43.677Z,14.72
2017-10-26T00:46:43.990Z,14.66
2017-10-26T00:47:43.641Z,14.7
2017-10-26T00:48:43.638Z,14.63
2017-10-26T00:49:43.952Z,14.7
2017-10-26T00:50:43.599Z,14.58
2017-10-26T00:51:43.883Z,14.65
2017-10-26T00:52:43.882Z,14.77
2017-10-26T00:53:43.521Z,14.62
2017-10-26T00:54:43.832Z,14.7
2017-10-26T00:55:43.492Z,14.69
2017-10-26T00:56:43.777Z,14.73
2017-10-26T00:57:43.453Z,14.7
2017-10-26T00:58:43.482Z,14.82
2017-10-26T00:59:43.412Z,14.82
2017-10-26T01:00:43.411Z,14.73
2017-10-26T01:01:43.404Z,14.7
2017-10-26T01:02:43.356Z,14.58
2017-10-26T01:03:43.684Z,14.69
2017-10-26T01:04:43.324Z,14.62
2017-10-26T01:05:43.317Z,14.69
2017-10-26T01:06:43.612Z,14.69
2017-10-26T01:07:43.272Z,14.68
2017-10-26T01:08:43.277Z,14.63
2017-10-26T01:09:43.238Z,14.77
2017-10-26T01:10:43.213Z,14.73
2017-10-26T01:11:43.512Z,14.72
2017-10-26T01:12:43.173Z,14.69
2017-10-26T01:13:43.481Z,14.68
2017-10-26T01:14:43.143Z,14.73
2017-10-26T01:15:43.123Z,14.8
2017-10-26T01:16:43.424Z,14.69
2017-10-26T01:17:43.412Z,14.66
2017-10-26T01:18:43.061Z,14.54
2017-10-26T01:19:43.379Z,14.65
2017-10-26T01:20:42.702Z,14.65
2017-10-26T01:21:43.009Z,14.7
2017-10-26T01:22:43.331Z,14.7
2017-10-26T01:23:43.298Z,14.6
2017-10-26T01:24:43.282Z,14.68
2017-10-26T01:25:43.251Z,14.58
2017-10-26T01:26:43.239Z,14.58
2017-10-26T01:27:43.227Z,14.73
2017-10-26T01:28:43.205Z,14.66
2017-10-26T01:29:43.181Z,14.63
2017-10-26T01:30:43.162Z,14.72
2017-10-26T01:31:43.264Z,14.68
2017-10-26T01:32:42.800Z,14.63
2017-10-26T01:33:42.830Z,14.77
2017-10-26T01:34:42.780Z,14.69
2017-10-26T01:35:43.093Z,14.7
2017-10-26T01:36:43.075Z,14.69
2017-10-26T01:37:43.049Z,14.69
2017-10-26T01:38:42.692Z,14.7
2017-10-26T01:39:42.693Z,14.7
2017-10-26T01:40:42.983Z,14.8
2017-10-26T01:41:43.071Z,14.84
2017-10-26T01:42:42.614Z,14.75
2017-10-26T01:43:42.992Z,14.68
2017-10-26T01:44:42.572Z,14.75
2017-10-26T01:45:43.136Z,14.72
2017-10-26T01:46:42.871Z,14.69
2017-10-26T01:47:42.532Z,14.75
2017-10-26T01:48:42.832Z,14.75
2017-10-26T01:49:42.821Z,14.84
2017-10-26T01:50:42.162Z,14.73
2017-10-26T01:51:42.774Z,14.79
2017-10-26T01:52:42.832Z,14.77
2017-10-26T01:53:42.764Z,14.69
2017-10-26T01:54:42.512Z,14.7
2017-10-26T01:55:42.814Z,14.85
2017-10-26T01:56:42.430Z,14.82
2017-10-26T01:57:42.781Z,14.69
2017-10-26T01:58:42.339Z,14.72
2017-10-26T01:59:42.629Z,14.73
2017-10-26T02:00:41.963Z,14.85
2017-10-26T02:01:42.602Z,14.8
2017-10-26T02:02:42.679Z,14.69
2017-10-26T02:03:42.231Z,14.69
2017-10-26T02:04:42.632Z,14.69
2017-10-26T02:05:42.281Z,14.58
2017-10-26T02:06:42.309Z,14.39
2017-10-26T02:07:42.182Z,14.5
2017-10-26T02:08:42.154Z,14.62
2017-10-26T02:09:42.492Z,14.6
2017-10-26T02:10:41.775Z,14.68
2017-10-26T02:11:42.541Z,14.68
2017-10-26T02:12:42.099Z,14.68
2017-10-26T02:13:42.387Z,14.7
2017-10-26T02:14:41.702Z,14.66
2017-10-26T02:15:42.591Z,14.58
2017-10-26T02:16:42.006Z,14.6
2017-10-26T02:17:41.971Z,14.69
2017-10-26T02:18:41.972Z,14.7
2017-10-26T02:19:42.261Z,14.7
2017-10-26T02:20:41.587Z,14.77
2017-10-26T02:21:41.902Z,14.66
2017-10-26T02:22:41.953Z,14.68
2017-10-26T02:23:42.192Z,14.6
2017-10-26T02:24:42.262Z,14.58
2017-10-26T02:25:41.821Z,14.63
2017-10-26T02:26:41.912Z,14.68
2017-10-26T02:27:42.114Z,14.63
2017-10-26T02:28:41.441Z,14.66
2017-10-26T02:29:41.746Z,14.68
2017-10-26T02:30:41.734Z,14.65
2017-10-26T02:31:41.720Z,14.72
2017-10-26T02:32:41.701Z,14.65
2017-10-26T02:33:41.672Z,14.73
2017-10-26T02:34:42.022Z,14.62
2017-10-26T02:35:42.075Z,14.72
2017-10-26T02:36:41.623Z,14.82
2017-10-26T02:37:41.928Z,14.72
2017-10-26T02:38:41.265Z,14.68
2017-10-26T02:39:41.907Z,14.75
2017-10-26T02:40:41.554Z,14.75
2017-10-26T02:41:41.876Z,14.73
2017-10-26T02:42:41.521Z,14.6
2017-10-26T02:43:41.827Z,14.6
2017-10-26T02:44:41.474Z,14.6
2017-10-26T02:45:41.765Z,14.57
2017-10-26T02:46:41.753Z,14.57
2017-10-26T02:47:41.410Z,14.62
2017-10-26T02:48:41.403Z,14.66
2017-10-26T02:49:41.392Z,14.73
2017-10-26T02:50:41.684Z,14.58
2017-10-26T02:51:41.682Z,14.66
2017-10-26T02:52:41.322Z,14.68
2017-10-26T02:53:41.622Z,14.73
2017-10-26T02:54:41.601Z,14.69
2017-10-26T02:55:41.603Z,14.69
2017-10-26T02:56:41.584Z,14.69
2017-10-26T02:57:41.561Z,14.7
2017-10-26T02:58:41.551Z,14.66
2017-10-26T02:59:41.191Z,14.66
2017-10-26T03:00:41.498Z,14.68
2017-10-26T03:01:41.481Z,14.6
2017-10-26T03:02:41.134Z,14.54
2017-10-26T03:03:41.431Z,14.65
2017-10-26T03:04:41.101Z,14.69
2017-10-26T03:05:41.121Z,14.7
2017-10-26T03:06:41.064Z,14.62
2017-10-26T03:07:41.182Z,14.55
2017-10-26T03:08:41.370Z,14.72
2017-10-26T03:09:41.344Z,14.68
2017-10-26T03:10:41.311Z,14.68
2017-10-26T03:11:41.051Z,14.75
2017-10-26T03:12:41.271Z,14.72
2017-10-26T03:13:40.930Z,14.72
2017-10-26T03:14:40.922Z,14.79
2017-10-26T03:15:40.902Z,14.88
2017-10-26T03:16:40.891Z,14.87
2017-10-26T03:17:40.862Z,14.84
2017-10-26T03:18:40.525Z,14.87
2017-10-26T03:19:41.258Z,14.87
2017-10-26T03:20:40.800Z,14.89
2017-10-26T03:21:40.786Z,14.87
2017-10-26T03:22:40.771Z,14.79
2017-10-26T03:23:40.765Z,14.75
2017-10-26T03:24:40.764Z,14.69
2017-10-26T03:25:41.033Z,14.75
2017-10-26T03:26:41.011Z,14.69
2017-10-26T03:27:40.763Z,14.6
2017-10-26T03:28:40.992Z,14.58
2017-10-26T03:29:40.386Z,14.69
2017-10-26T03:30:40.960Z,14.69
2017-10-26T03:31:41.012Z,14.68
2017-10-26T03:32:40.918Z,14.7
2017-10-26T03:33:40.911Z,14.57
2017-10-26T03:34:40.611Z,14.57
2017-10-26T03:35:40.633Z,14.68
2017-10-26T03:36:40.513Z,14.72
2017-10-26T03:37:40.892Z,14.57
2017-10-26T03:38:40.901Z,14.62
2017-10-26T03:39:40.835Z,14.63
2017-10-26T03:40:40.509Z,14.53
2017-10-26T03:41:40.783Z,14.48
2017-10-26T03:42:40.750Z,14.5
2017-10-26T03:43:40.152Z,14.54
2017-10-26T03:44:40.693Z,14.6
2017-10-26T03:45:40.911Z,14.68
2017-10-26T03:46:40.655Z,14.7
2017-10-26T03:47:40.360Z,14.66
2017-10-26T03:48:40.761Z,14.57
2017-10-26T03:49:40.704Z,14.69
2017-10-26T03:50:40.634Z,14.62
2017-10-26T03:51:40.231Z,14.58
2017-10-26T03:52:40.212Z,14.48
2017-10-26T03:53:40.178Z,14.54
2017-10-26T03:54:40.501Z,14.51
2017-10-26T03:55:40.488Z,14.5
2017-10-26T03:56:40.228Z,14.57
2017-10-26T03:57:40.503Z,14.58
2017-10-26T03:58:40.470Z,14.66
2017-10-26T03:59:40.454Z,14.65
2017-10-26T04:00:40.142Z,14.69
2017-10-26T04:01:40.042Z,14.65
2017-10-26T04:02:40.395Z,14.42
2017-10-26T04:03:40.013Z,14.36
2017-10-26T04:04:40.332Z,14.44
2017-10-26T04:05:39.648Z,14.5
2017-10-26T04:06:40.391Z,14.5
2017-10-26T04:07:39.614Z,14.6
2017-10-26T04:08:40.249Z,14.48
2017-10-26T04:09:39.571Z,14.54
2017-10-26T04:10:39.893Z,14.62
2017-10-26T04:11:39.850Z,14.6
2017-10-26T04:12:40.191Z,14.53
2017-10-26T04:13:39.491Z,14.44
2017-10-26T04:14:40.130Z,14.5
2017-10-26T04:15:39.790Z,14.42
2017-10-26T04:16:39.762Z,14.35
2017-10-26T04:17:40.131Z,14.42
2017-10-26T04:18:40.052Z,14.48
2017-10-26T04:19:39.707Z,14.54
2017-10-26T04:20:40.001Z,14.46
2017-10-26T04:21:39.672Z,14.46
2017-10-26T04:22:39.662Z,14.57
2017-10-26T04:23:39.621Z,14.48
2017-10-26T04:24:39.931Z,14.58
2017-10-26T04:25:39.271Z,14.44
2017-10-26T04:26:39.590Z,14.6
2017-10-26T04:27:39.569Z,14.32
2017-10-26T04:28:39.861Z,14.44
2017-10-26T04:29:39.530Z,14.33
2017-10-26T04:30:39.508Z,14.32
2017-10-26T04:31:39.491Z,14.39
2017-10-26T04:32:39.453Z,14.44
2017-10-26T04:33:39.782Z,14.46
2017-10-26T04:34:39.750Z,14.35
2017-10-26T04:35:39.741Z,14.29
2017-10-26T04:36:39.723Z,14.26
2017-10-26T04:37:39.381Z,14.47
2017-10-26T04:38:39.677Z,14.48
2017-10-26T04:39:39.662Z,14.47
2017-10-26T04:40:39.635Z,14.4
2017-10-26T04:41:39.563Z,14.36
2017-10-26T04:42:38.952Z,14.51
2017-10-26T04:43:39.601Z,14.39
2017-10-26T04:44:39.251Z,14.4
2017-10-26T04:45:39.542Z,14.47
2017-10-26T04:46:39.201Z,14.47
2017-10-26T04:47:39.195Z,14.47
2017-10-26T04:48:39.501Z,14.48
2017-10-26T04:49:39.512Z,14.55
2017-10-26T04:50:39.120Z,14.53
2017-10-26T04:51:39.167Z,14.58
2017-10-26T04:52:39.092Z,14.51
2017-10-26T04:53:39.489Z,14.53
2017-10-26T04:54:39.053Z,14.58
2017-10-26T04:55:39.074Z,14.5
2017-10-26T04:56:39.341Z,14.58
2017-10-26T04:57:39.402Z,14.57
2017-10-26T04:58:38.996Z,14.63
2017-10-26T04:59:39.032Z,14.6
2017-10-26T05:00:38.940Z,14.6
2017-10-26T05:01:39.331Z,14.57
2017-10-26T05:02:38.908Z,14.5
2017-10-26T05:03:38.913Z,14.4
2017-10-26T05:04:38.860Z,14.48
2017-10-26T05:05:38.854Z,14.55
2017-10-26T05:06:39.151Z,14.55
2017-10-26T05:07:38.861Z,14.53
2017-10-26T05:08:38.790Z,14.6
2017-10-26T05:09:39.096Z,14.54
2017-10-26T05:10:38.774Z,14.29
2017-10-26T05:11:38.512Z,14.38
2017-10-26T05:12:38.397Z,14.47
2017-10-26T05:13:39.130Z,14.47
2017-10-26T05:14:38.762Z,14.54
2017-10-26T05:15:38.392Z,14.54
2017-10-26T05:16:38.971Z,14.54
2017-10-26T05:17:38.652Z,14.51
2017-10-26T05:18:39.041Z,14.42
2017-10-26T05:19:39.002Z,14.57
2017-10-26T05:20:38.902Z,14.58
2017-10-26T05:21:38.642Z,14.58
2017-10-26T05:22:38.852Z,14.62
2017-10-26T05:23:38.891Z,14.55
2017-10-26T05:24:38.822Z,14.7
2017-10-26T05:25:38.517Z,14.6
2017-10-26T05:26:38.791Z,14.57
2017-10-26T05:27:38.162Z,14.58
2017-10-26T05:28:38.427Z,14.62
2017-10-26T05:29:38.779Z,14.6
2017-10-26T05:30:38.415Z,14.69
2017-10-26T05:31:38.415Z,14.65
2017-10-26T05:32:38.365Z,14.62
2017-10-26T05:33:38.654Z,14.68
2017-10-26T05:34:38.303Z,14.69
2017-10-26T05:35:38.632Z,14.65
2017-10-26T05:36:38.592Z,14.58
2017-10-26T05:37:38.582Z,14.58
2017-10-26T05:38:38.612Z,14.62
2017-10-26T05:39:38.217Z,14.46
2017-10-26T05:40:38.571Z,14.4
2017-10-26T05:41:38.502Z,14.33
2017-10-26T05:42:38.495Z,14.38
2017-10-26T05:43:37.811Z,14.3
2017-10-26T05:44:38.147Z,14.32
2017-10-26T05:45:37.782Z,14.35
2017-10-26T05:46:38.458Z,14.38
2017-10-26T05:47:38.471Z,14.3
2017-10-26T05:48:38.058Z,14.36
2017-10-26T05:49:38.037Z,14.32
2017-10-26T05:50:38.154Z,14.35
2017-10-26T05:51:38.412Z,14.47
2017-10-26T05:52:38.292Z,14.47
2017-10-26T05:53:38.299Z,14.5
2017-10-26T05:54:38.244Z,14.57
2017-10-26T05:55:37.923Z,14.57
2017-10-26T05:56:37.902Z,14.65
2017-10-26T05:57:37.872Z,14.5
2017-10-26T05:58:38.183Z,14.5
2017-10-26T05:59:38.160Z,14.47
2017-10-26T06:00:37.821Z,14.36
2017-10-26T06:01:37.802Z,14.36
2017-10-26T06:02:37.463Z,14.32
2017-10-26T06:03:38.081Z,14.28
2017-10-26T06:04:37.769Z,14.32
2017-10-26T06:05:37.398Z,14.25
2017-10-26T06:06:38.042Z,14.36
2017-10-26T06:07:38.065Z,14.46
2017-10-26T06:08:37.992Z,14.39
2017-10-26T06:09:38.038Z,14.44
2017-10-26T06:10:37.965Z,14.39
2017-10-26T06:11:37.940Z,14.29
2017-10-26T06:12:37.923Z,14.39
2017-10-26T06:13:37.914Z,14.4
2017-10-26T06:14:37.892Z,14.33
2017-10-26T06:15:37.547Z,14.35
2017-10-26T06:16:37.523Z,14.51
2017-10-26T06:17:37.836Z,14.44
2017-10-26T06:18:37.816Z,14.46
2017-10-26T06:19:37.802Z,14.47
2017-10-26T06:20:37.772Z,14.42
2017-10-26T06:21:37.802Z,14.44
2017-10-26T06:22:37.084Z,14.48
2017-10-26T06:23:37.764Z,14.4
2017-10-26T06:24:37.374Z,14.32
2017-10-26T06:25:37.388Z,14.4
2017-10-26T06:26:37.343Z,14.35
2017-10-26T06:27:37.323Z,14.44
2017-10-26T06:28:37.622Z,14.4
2017-10-26T06:29:37.284Z,14.54
2017-10-26T06:30:37.572Z,14.51
2017-10-26T06:31:37.282Z,14.55
2017-10-26T06:32:37.556Z,14.58
2017-10-26T06:33:37.553Z,14.58
2017-10-26T06:34:36.872Z,14.65
2017-10-26T06:35:37.482Z,14.73
2017-10-26T06:36:37.482Z,14.73
2017-10-26T06:37:37.141Z,14.63
2017-10-26T06:38:37.452Z,14.69
2017-10-26T06:39:37.103Z,14.72
2017-10-26T06:40:37.082Z,14.75
2017-10-26T06:41:37.352Z,14.68
2017-10-26T06:42:37.364Z,14.82
2017-10-26T06:43:37.075Z,14.8
2017-10-26T06:44:36.995Z,14.68
2017-10-26T06:45:37.313Z,14.6
2017-10-26T06:46:37.322Z,14.69
2017-10-26T06:47:36.951Z,14.58
2017-10-26T06:48:37.341Z,14.62
2017-10-26T06:49:37.246Z,14.68
2017-10-26T06:50:36.884Z,14.73
2017-10-26T06:51:37.221Z,14.69
2017-10-26T06:52:36.525Z,14.7
2017-10-26T06:53:37.161Z,14.79
2017-10-26T06:54:37.182Z,14.82
2017-10-26T06:55:37.143Z,14.85
2017-10-26T06:56:37.103Z,14.79
2017-10-26T06:57:36.771Z,14.72
2017-10-26T06:58:37.061Z,14.58
2017-10-26T06:59:36.710Z,14.6
2017-10-26T07:00:36.722Z,14.57
2017-10-26T07:01:36.424Z,14.51
2017-10-26T07:02:37.023Z,14.6
2017-10-26T07:03:36.983Z,14.73
2017-10-26T07:04:36.631Z,14.7
2017-10-26T07:05:36.625Z,14.75
2017-10-26T07:06:36.992Z,14.75
2017-10-26T07:07:36.893Z,14.73
2017-10-26T07:08:36.251Z,14.79
2017-10-26T07:09:36.211Z,14.91
2017-10-26T07:10:36.923Z,14.87
2017-10-26T07:11:36.835Z,14.88
2017-10-26T07:12:36.532Z,14.89
2017-10-26T07:13:36.475Z,14.87
2017-10-26T07:14:36.122Z,14.87
2017-10-26T07:15:36.759Z,14.85
2017-10-26T07:16:36.808Z,14.91
2017-10-26T07:17:36.732Z,14.98
2017-10-26T07:18:36.361Z,15.04
2017-10-26T07:19:36.341Z,15.06
2017-10-26T07:20:36.658Z,15.02
2017-10-26T07:21:36.310Z,14.98
2017-10-26T07:22:36.304Z,14.85
2017-10-26T07:23:36.600Z,14.96
2017-10-26T07:24:36.273Z,14.92
2017-10-26T07:25:36.580Z,14.96
2017-10-26T07:26:36.604Z,15
2017-10-26T07:27:36.213Z,14.96
2017-10-26T07:28:36.532Z,14.88
2017-10-26T07:29:36.184Z,14.91
2017-10-26T07:30:36.150Z,14.92
2017-10-26T07:31:35.810Z,14.94
2017-10-26T07:32:36.453Z,14.94
2017-10-26T07:33:36.413Z,14.95
2017-10-26T07:34:36.391Z,15.06
2017-10-26T07:35:36.076Z,15.1
2017-10-26T07:36:36.065Z,15.1
2017-10-26T07:37:36.352Z,15.14
2017-10-26T07:38:36.321Z,15.12
2017-10-26T07:39:35.983Z,15.12
2017-10-26T07:40:35.974Z,15.25
2017-10-26T07:41:36.326Z,15.22
2017-10-26T07:42:35.932Z,15.22
2017-10-26T07:43:35.933Z,15.16
2017-10-26T07:44:35.904Z,15.14
2017-10-26T07:45:35.882Z,15.06
2017-10-26T07:46:35.863Z,15.12
2017-10-26T07:47:36.200Z,15.09
2017-10-26T07:48:35.837Z,15.25
2017-10-26T07:49:36.139Z,15.22
2017-10-26T07:50:36.103Z,15.17
2017-10-26T07:51:35.788Z,15.21
2017-10-26T07:52:36.073Z,15.25
2017-10-26T07:53:36.064Z,15.34
2017-10-26T07:54:36.057Z,15.35
2017-10-26T07:55:36.034Z,15.4
2017-10-26T07:56:36.006Z,15.24
2017-10-26T07:57:35.982Z,15.32
2017-10-26T07:58:35.972Z,15.32
2017-10-26T07:59:35.962Z,15.39
2017-10-26T08:00:35.935Z,15.39
2017-10-26T08:01:35.578Z,15.34
2017-10-26T08:02:35.576Z,15.24
2017-10-26T08:03:35.881Z,15.12
2017-10-26T08:04:35.532Z,15.14
2017-10-26T08:05:35.855Z,15.2
2017-10-26T08:06:35.813Z,15.16
2017-10-26T08:07:35.471Z,15.13
2017-10-26T08:08:35.462Z,15.16
2017-10-26T08:09:35.781Z,15.21
2017-10-26T08:10:35.429Z,15.24
2017-10-26T08:11:35.743Z,15.27
2017-10-26T08:12:35.711Z,15.24
2017-10-26T08:13:35.690Z,15.24
2017-10-26T08:14:35.039Z,15.32
2017-10-26T08:15:35.335Z,15.39
2017-10-26T08:16:35.635Z,15.37
2017-10-26T08:17:35.302Z,15.42
2017-10-26T08:18:35.588Z,15.27
2017-10-26T08:19:35.582Z,15.28
2017-10-26T08:20:35.569Z,15.39
2017-10-26T08:21:35.236Z,15.25
2017-10-26T08:22:35.210Z,15.32
2017-10-26T08:23:35.503Z,15.34
2017-10-26T08:24:35.184Z,15.21
2017-10-26T08:25:35.152Z,15.13
2017-10-26T08:26:35.138Z,15.27
2017-10-26T08:27:35.472Z,15.28
2017-10-26T08:28:35.422Z,15.32
2017-10-26T08:29:35.082Z,15.35
2017-10-26T08:30:35.384Z,15.34
2017-10-26T08:31:34.713Z,15.34
2017-10-26T08:32:35.040Z,15.29
2017-10-26T08:33:35.007Z,15.32
2017-10-26T08:34:34.805Z,15.43
2017-10-26T08:35:35.300Z,15.49
2017-10-26T08:36:34.964Z,15.42
2017-10-26T08:37:35.251Z,15.47
2017-10-26T08:38:35.261Z,15.54
2017-10-26T08:39:34.912Z,15.58
2017-10-26T08:40:34.881Z,15.49
2017-10-26T08:41:34.873Z,15.43
2017-10-26T08:42:35.166Z,15.44
2017-10-26T08:43:34.513Z,15.42
2017-10-26T08:44:35.191Z,15.49
2017-10-26T08:45:34.471Z,15.44
2017-10-26T08:46:34.775Z,15.53
2017-10-26T08:47:34.754Z,15.52
2017-10-26T08:48:34.759Z,15.44
2017-10-26T08:49:34.722Z,15.39
2017-10-26T08:50:35.034Z,15.34
2017-10-26T08:51:34.681Z,15.43
2017-10-26T08:52:35.014Z,15.44
2017-10-26T08:53:34.996Z,15.58
2017-10-26T08:54:34.970Z,15.47
2017-10-26T08:55:34.621Z,15.57
2017-10-26T08:56:34.940Z,15.49
2017-10-26T08:57:34.933Z,15.49
2017-10-26T08:58:34.572Z,15.42
2017-10-26T08:59:34.585Z,15.58
2017-10-26T09:00:34.860Z,15.65
2017-10-26T09:01:34.850Z,15.54
2017-10-26T09:02:34.821Z,15.61
2017-10-26T09:03:34.792Z,15.62
2017-10-26T09:04:34.462Z,15.71
2017-10-26T09:05:34.758Z,15.47
2017-10-26T09:06:34.422Z,15.47
2017-10-26T09:07:34.744Z,15.6
2017-10-26T09:08:34.700Z,15.52
2017-10-26T09:09:34.377Z,15.54
2017-10-26T09:10:34.672Z,15.54
2017-10-26T09:11:34.670Z,15.58
2017-10-26T09:12:34.311Z,15.58
2017-10-26T09:13:34.305Z,15.64
2017-10-26T09:14:34.612Z,15.53
2017-10-26T09:15:34.583Z,15.62
2017-10-26T09:16:34.562Z,15.65
2017-10-26T09:17:34.541Z,15.61
2017-10-26T09:18:34.201Z,15.58
2017-10-26T09:19:34.512Z,15.57
2017-10-26T09:20:34.181Z,15.57
2017-10-26T09:21:34.481Z,15.61
2017-10-26T09:22:34.136Z,15.57
2017-10-26T09:23:34.462Z,15.67
2017-10-26T09:24:33.774Z,15.61
2017-10-26T09:25:34.095Z,15.54
2017-10-26T09:26:34.397Z,15.47
2017-10-26T09:27:33.717Z,15.52
2017-10-26T09:28:34.044Z,15.49
2017-10-26T09:29:34.013Z,15.44
2017-10-26T09:30:33.995Z,15.57
2017-10-26T09:31:33.646Z,15.54
2017-10-26T09:32:33.957Z,15.65
2017-10-26T09:33:34.261Z,15.71
2017-10-26T09:34:34.240Z,15.68
2017-10-26T09:35:33.901Z,15.75
2017-10-26T09:36:34.201Z,15.72
2017-10-26T09:37:33.872Z,15.75
2017-10-26T09:38:33.851Z,15.72
2017-10-26T09:39:34.162Z,15.94
2017-10-26T09:40:34.140Z,15.98
2017-10-26T09:41:33.807Z,15.9
2017-10-26T09:42:33.778Z,15.76
2017-10-26T09:43:33.778Z,15.9
2017-10-26T09:44:34.072Z,15.92
2017-10-26T09:45:33.729Z,15.9
2017-10-26T09:46:34.013Z,15.95
2017-10-26T09:47:33.701Z,16.02
2017-10-26T09:48:33.680Z,16.05
2017-10-26T09:49:33.994Z,16.08
2017-10-26T09:50:33.964Z,16.21
2017-10-26T09:51:33.859Z,16.17
2017-10-26T09:52:33.921Z,16.07
2017-10-26T09:53:33.912Z,16.17
2017-10-26T09:54:33.564Z,16.02
2017-10-26T09:55:33.541Z,16.16
2017-10-26T09:56:33.535Z,16.26
2017-10-26T09:57:33.839Z,16.16
2017-10-26T09:58:33.832Z,16.23
2017-10-26T09:59:33.792Z,16.42
2017-10-26T10:00:33.783Z,16.45
2017-10-26T10:01:33.785Z,16.46
2017-10-26T10:02:33.777Z,16.35
2017-10-26T10:03:33.975Z,16.38
2017-10-26T10:04:33.734Z,16.38
2017-10-26T10:05:33.714Z,16.41
2017-10-26T10:06:33.706Z,16.57
2017-10-26T10:07:33.683Z,16.57
2017-10-26T10:08:33.658Z,16.36
2017-10-26T10:09:33.655Z,16.51
2017-10-26T10:10:33.635Z,16.61
2017-10-26T10:11:33.281Z,16.68
2017-10-26T10:12:33.592Z,16.53
2017-10-26T10:13:33.589Z,16.48
2017-10-26T10:14:33.571Z,16.43
2017-10-26T10:15:33.203Z,16.58
2017-10-26T10:16:33.516Z,16.64
2017-10-26T10:17:33.505Z,16.87
2017-10-26T10:18:33.470Z,16.69
2017-10-26T10:19:33.250Z,16.9
2017-10-26T10:20:33.443Z,16.96
2017-10-26T10:21:33.455Z,17.01
2017-10-26T10:22:32.805Z,16.82
2017-10-26T10:23:33.503Z,16.74
2017-10-26T10:24:32.802Z,16.76
2017-10-26T10:25:33.368Z,16.81
2017-10-26T10:26:33.032Z,16.9
2017-10-26T10:27:33.322Z,16.87
2017-10-26T10:28:33.004Z,16.96
2017-10-26T10:29:33.437Z,17.05
2017-10-26T10:30:33.386Z,16.72
2017-10-26T10:31:33.264Z,16.87
2017-10-26T10:32:33.273Z,16.96
2017-10-26T10:33:33.272Z,17.09
2017-10-26T10:34:32.894Z,17.18
2017-10-26T10:35:33.226Z,17.29
2017-10-26T10:36:33.347Z,17.34
2017-10-26T10:37:33.266Z,17.3
2017-10-26T10:38:33.159Z,17.37
2017-10-26T10:39:33.252Z,17.37
2017-10-26T10:40:33.217Z,17.05
2017-10-26T10:41:32.782Z,17.01
2017-10-26T10:42:33.110Z,17.14
2017-10-26T10:43:32.803Z,17.51
2017-10-26T10:44:33.067Z,17.98
2017-10-26T10:45:33.131Z,18.11
2017-10-26T10:46:32.694Z,18.22
2017-10-26T10:47:33.013Z,18.37
2017-10-26T10:48:32.679Z,18.48
2017-10-26T10:49:33.025Z,18.48
2017-10-26T10:50:32.673Z,18.7
2017-10-26T10:51:32.303Z,18.6
2017-10-26T10:52:32.947Z,18.59
2017-10-26T10:53:32.659Z,18.77
2017-10-26T10:54:33.027Z,18.65
2017-10-26T10:55:32.574Z,18.42
2017-10-26T10:56:32.881Z,18.35
2017-10-26T10:57:32.660Z,18.4
2017-10-26T10:58:32.523Z,18.65
2017-10-26T10:59:32.522Z,18.87
2017-10-26T11:00:32.525Z,19.14
2017-10-26T11:01:32.578Z,19.22
2017-10-26T11:02:32.483Z,19.31
2017-10-26T11:03:32.473Z,19.33
2017-10-26T11:04:32.443Z,19.28
2017-10-26T11:05:32.472Z,19.07
2017-10-26T11:06:32.742Z,18.81
2017-10-26T11:07:32.413Z,18.52
2017-10-26T11:08:32.394Z,18.55
2017-10-26T11:09:32.377Z,18.75
2017-10-26T11:10:32.737Z,18.95
2017-10-26T11:11:32.694Z,18.95
2017-10-26T11:12:32.660Z,19.07
2017-10-26T11:13:32.634Z,19.08
2017-10-26T11:14:32.691Z,18.6
2017-10-26T11:15:32.629Z,18.7
2017-10-26T11:16:32.574Z,18.5
2017-10-26T11:17:31.936Z,18.44
2017-10-26T11:18:32.265Z,18.38
2017-10-26T11:19:32.239Z,18.38
2017-10-26T11:20:32.555Z,18.26
2017-10-26T11:21:32.197Z,18.3
2017-10-26T11:22:32.515Z,18.07
2017-10-26T11:23:31.853Z,18
2017-10-26T11:24:32.484Z,17.78
2017-10-26T11:25:32.494Z,17.54
2017-10-26T11:26:32.124Z,17.36
2017-10-26T11:27:32.455Z,17.31
2017-10-26T11:28:32.414Z,17.44
2017-10-26T11:29:32.416Z,17.68
2017-10-26T11:30:32.402Z,17.68
2017-10-26T11:31:32.064Z,17.64
2017-10-26T11:32:32.377Z,17.83
2017-10-26T11:33:31.713Z,17.78
2017-10-26T11:34:32.000Z,17.96
2017-10-26T11:35:32.329Z,18.12
2017-10-26T11:36:32.303Z,18.15
2017-10-26T11:37:32.294Z,17.96
2017-10-26T11:38:32.266Z,18
2017-10-26T11:39:31.604Z,17.96
2017-10-26T11:40:32.243Z,17.98
2017-10-26T11:41:32.222Z,17.95
2017-10-26T11:42:32.215Z,18.08
2017-10-26T11:43:32.185Z,18
2017-10-26T11:44:31.854Z,17.89
2017-10-26T11:45:32.170Z,17.95
2017-10-26T11:46:31.841Z,17.92
2017-10-26T11:47:31.475Z,17.65
2017-10-26T11:48:31.785Z,17.89
2017-10-26T11:49:32.093Z,18.02
2017-10-26T11:50:32.078Z,18.18
2017-10-26T11:51:32.084Z,18.4
2017-10-26T11:52:32.066Z,18.4
2017-10-26T11:53:31.720Z,18.48
2017-10-26T11:54:31.697Z,18.48
2017-10-26T11:55:31.698Z,18.35
2017-10-26T11:56:31.664Z,18.45
2017-10-26T11:57:31.974Z,18.27
2017-10-26T11:58:31.974Z,18.25
2017-10-26T11:59:31.959Z,18.18
2017-10-26T12:00:31.933Z,18.12
2017-10-26T12:01:31.593Z,18.15
2017-10-26T12:02:31.911Z,18.02
2017-10-26T12:03:31.295Z,18.1
2017-10-26T12:04:31.864Z,18.2
2017-10-26T12:05:31.534Z,18.19
2017-10-26T12:06:31.844Z,18.07
2017-10-26T12:07:31.816Z,18.14
2017-10-26T12:08:31.829Z,18.1
2017-10-26T12:09:31.797Z,18.23
2017-10-26T12:10:31.454Z,18.42
2017-10-26T12:11:31.445Z,18.41
2017-10-26T12:12:31.426Z,18.51
2017-10-26T12:13:31.731Z,18.41
2017-10-26T12:14:31.386Z,18.52
2017-10-26T12:15:31.389Z,18.44
2017-10-26T12:16:31.684Z,18.59
2017-10-26T12:17:31.396Z,18.62
2017-10-26T12:18:31.672Z,18.66
2017-10-26T12:19:31.361Z,18.62
2017-10-26T12:20:30.981Z,18.56
2017-10-26T12:21:31.611Z,18.5
2017-10-26T12:22:31.702Z,18.6
2017-10-26T12:23:31.405Z,18.67
2017-10-26T12:24:31.602Z,18.6
2017-10-26T12:25:31.548Z,18.7
2017-10-26T12:26:31.532Z,18.67
2017-10-26T12:27:31.522Z,18.78
2017-10-26T12:28:31.522Z,18.9
2017-10-26T12:29:31.159Z,18.96
2017-10-26T12:30:31.481Z,18.97
2017-10-26T12:31:31.144Z,19.06
2017-10-26T12:32:31.461Z,19.16
2017-10-26T12:33:31.456Z,19.06
2017-10-26T12:34:31.113Z,19.07
2017-10-26T12:35:31.541Z,19
2017-10-26T12:36:31.402Z,18.95
2017-10-26T12:37:31.063Z,18.92
2017-10-26T12:38:31.382Z,18.93
2017-10-26T12:39:31.350Z,18.92
2017-10-26T12:40:31.342Z,18.93
2017-10-26T12:41:31.411Z,18.8
2017-10-26T12:42:31.314Z,18.84
2017-10-26T12:43:31.353Z,18.97
2017-10-26T12:44:31.304Z,18.75
2017-10-26T12:45:30.943Z,18.74
2017-10-26T12:46:31.236Z,18.87
2017-10-26T12:47:30.911Z,18.8
2017-10-26T12:48:31.289Z,18.95
2017-10-26T12:49:31.192Z,19.21
2017-10-26T12:50:31.237Z,19.34
2017-10-26T12:51:31.283Z,19.56
2017-10-26T12:52:31.176Z,19.56
2017-10-26T12:53:31.212Z,19.56
2017-10-26T12:54:31.173Z,19.52
2017-10-26T12:55:31.158Z,19.52
2017-10-26T12:56:31.125Z,19.56